createdAt,value
2019-01-29T00:01:30.917Z,82.81
2019-01-29T00:04:00.859Z,82.45
2019-01-29T00:06:30.915Z,81.81
2019-01-29T00:09:00.860Z,82.17
2019-01-29T00:11:30.845Z,81.29
2019-01-29T00:14:00.728Z,81.59
2019-01-29T00:16:30.689Z,81.19
2019-01-29T00:19:00.627Z,80.26
2019-01-29T00:21:31.586Z,80.16
2019-01-29T00:24:01.611Z,80.19
2019-01-29T00:26:31.429Z,80.30
2019-01-29T00:29:01.453Z,79.86
2019-01-29T00:31:31.446Z,79.82
2019-01-29T00:34:01.306Z,79.62
2019-01-29T00:36:31.276Z,79.00
2019-01-29T00:39:01.271Z,79.20
2019-01-29T00:41:32.807Z,78.83
2019-01-29T00:44:03.096Z,79.17
2019-01-29T00:46:32.990Z,79.52
2019-01-29T00:49:03.022Z,79.51
2019-01-29T00:51:32.895Z,79.03
2019-01-29T00:54:02.794Z,78.89
2019-01-29T00:56:32.648Z,79.05
2019-01-29T00:59:02.544Z,78.26
2019-01-29T01:01:32.458Z,78.34
2019-01-29T01:04:02.459Z,77.82
2019-01-29T01:06:32.420Z,76.81
2019-01-29T01:09:02.406Z,77.11
2019-01-29T01:11:33.410Z,77.25
2019-01-29T01:14:03.302Z,77.81
2019-01-29T01:16:33.311Z,77.51
2019-01-29T01:19:03.205Z,77.72
2019-01-29T01:21:33.715Z,77.99
2019-01-29T01:24:03.682Z,78.03
2019-01-29T01:26:34.084Z,78.37
2019-01-29T01:29:04.056Z,78.60
2019-01-29T01:31:33.987Z,78.47
2019-01-29T01:34:03.913Z,78.77
2019-01-29T01:36:33.850Z,78.47
2019-01-29T01:39:05.877Z,78.83
2019-01-29T01:41:35.716Z,78.43
2019-01-29T01:44:05.732Z,77.97
2019-01-29T01:46:35.638Z,78.17
2019-01-29T01:49:05.788Z,78.10
2019-01-29T01:51:35.684Z,77.82
2019-01-29T01:54:05.824Z,77.92
2019-01-29T01:56:35.795Z,77.99
2019-01-29T01:59:05.824Z,77.30
2019-01-29T02:01:35.875Z,77.54
2019-01-29T02:04:05.879Z,78.08
2019-01-29T02:06:35.828Z,77.62
2019-01-29T02:09:08.794Z,77.86
2019-01-29T02:11:38.793Z,78.01
2019-01-29T02:14:08.722Z,77.55
2019-01-29T02:16:38.626Z,76.91
2019-01-29T02:19:08.582Z,77.46
2019-01-29T02:21:38.623Z,77.57
2019-01-29T02:24:08.584Z,77.28
2019-01-29T02:26:38.494Z,76.91
2019-01-29T02:29:08.505Z,76.90
2019-01-29T02:31:38.532Z,77.44
2019-01-29T02:34:08.525Z,77.38
2019-01-29T02:36:38.511Z,77.00
2019-01-29T02:39:09.471Z,76.58
2019-01-29T02:41:39.400Z,76.87
2019-01-29T02:44:09.379Z,76.68
2019-01-29T02:46:39.354Z,77.02
2019-01-29T02:49:09.259Z,75.76
2019-01-29T02:51:39.315Z,76.05
2019-01-29T02:54:09.262Z,76.77
2019-01-29T02:56:39.287Z,77.02
2019-01-29T02:59:09.175Z,76.65
2019-01-29T03:01:39.226Z,76.71
2019-01-29T03:04:09.261Z,75.60
2019-01-29T03:06:39.291Z,75.57
2019-01-29T03:09:10.084Z,75.89
2019-01-29T03:11:40.109Z,75.59
2019-01-29T03:14:10.105Z,76.77
2019-01-29T03:16:40.110Z,76.70
2019-01-29T03:19:10.067Z,76.95
2019-01-29T03:21:40.071Z,77.23
2019-01-29T03:24:10.072Z,76.82
2019-01-29T03:26:39.985Z,77.27
2019-01-29T03:29:10.019Z,77.35
2019-01-29T03:31:40.007Z,76.94
2019-01-29T03:34:09.919Z,76.57
2019-01-29T03:36:39.747Z,76.11
2019-01-29T03:39:09.889Z,76.71
2019-01-29T03:41:39.887Z,76.74
2019-01-29T03:44:09.910Z,77.62
2019-01-29T03:46:39.854Z,78.13
2019-01-29T03:49:09.780Z,78.46
2019-01-29T03:51:39.695Z,77.79
2019-01-29T03:54:09.703Z,77.01
2019-01-29T03:56:39.632Z,77.33
2019-01-29T03:59:09.552Z,77.75
2019-01-29T04:01:39.457Z,77.79
2019-01-29T04:04:28.571Z,78.37
2019-01-29T04:06:58.536Z,78.35
2019-01-29T04:09:28.466Z,78.10
2019-01-29T04:11:58.440Z,78.37
2019-01-29T04:14:28.317Z,78.09
2019-01-29T04:16:58.268Z,77.48
2019-01-29T04:19:29.189Z,76.95
2019-01-29T04:21:59.102Z,76.15
2019-01-29T04:24:29.053Z,76.18
2019-01-29T04:26:58.995Z,75.35
2019-01-29T04:29:28.944Z,76.75
2019-01-29T04:31:58.883Z,76.28
2019-01-29T04:34:28.749Z,76.51
2019-01-29T04:36:58.615Z,77.46
2019-01-29T04:39:28.451Z,76.55
2019-01-29T04:41:58.393Z,76.21
2019-01-29T04:44:28.366Z,75.88
2019-01-29T04:46:58.343Z,75.47
2019-01-29T04:49:28.234Z,76.58
2019-01-29T04:51:58.295Z,76.21
2019-01-29T04:54:28.275Z,76.00
2019-01-29T04:56:58.292Z,75.20
2019-01-29T04:59:28.304Z,75.99
2019-01-29T05:01:58.198Z,76.30
2019-01-29T05:04:28.253Z,75.97
2019-01-29T05:06:58.218Z,76.47
2019-01-29T05:09:28.158Z,77.02
2019-01-29T05:11:58.061Z,76.80
2019-01-29T05:14:28.024Z,76.46
2019-01-29T05:16:57.940Z,77.48
2019-01-29T05:19:28.009Z,77.60
2019-01-29T05:21:58.005Z,77.87
2019-01-29T05:24:27.981Z,77.99
2019-01-29T05:26:58.149Z,77.99
2019-01-29T05:29:28.140Z,77.76
2019-01-29T05:31:58.129Z,78.28
2019-01-29T05:34:28.033Z,78.86
2019-01-29T05:36:58.032Z,78.37
2019-01-29T05:39:27.997Z,77.48
2019-01-29T05:41:57.928Z,76.78
2019-01-29T05:44:27.788Z,77.09
2019-01-29T05:46:57.789Z,78.20
2019-01-29T05:49:27.629Z,78.85
2019-01-29T05:51:57.502Z,78.36
2019-01-29T05:54:27.438Z,77.24
2019-01-29T05:56:57.379Z,76.63
2019-01-29T05:59:27.379Z,75.47
2019-01-29T06:01:57.408Z,75.27
2019-01-29T06:04:27.476Z,75.68
2019-01-29T06:06:57.392Z,76.57
2019-01-29T06:09:27.352Z,75.96
2019-01-29T06:11:57.301Z,76.10
2019-01-29T06:14:27.159Z,76.07
2019-01-29T06:16:56.995Z,76.06
2019-01-29T06:19:27.053Z,76.27
2019-01-29T06:21:56.966Z,75.62
2019-01-29T06:24:27.001Z,75.78
2019-01-29T06:26:56.937Z,75.41
2019-01-29T06:29:26.877Z,76.35
2019-01-29T06:31:56.858Z,75.37
2019-01-29T06:34:26.737Z,74.59
2019-01-29T06:36:56.660Z,74.53
2019-01-29T06:39:26.490Z,75.22
2019-01-29T06:41:56.419Z,75.67
2019-01-29T06:44:26.348Z,75.03
2019-01-29T06:46:56.306Z,74.05
2019-01-29T06:49:26.207Z,74.63
2019-01-29T06:51:56.227Z,75.32
2019-01-29T06:54:33.794Z,75.79
2019-01-29T06:56:57.935Z,75.88
2019-01-29T06:59:27.821Z,76.47
2019-01-29T07:01:57.706Z,75.86
2019-01-29T07:04:27.599Z,76.04
2019-01-29T07:06:57.581Z,75.43
2019-01-29T07:09:27.613Z,75.35
2019-01-29T07:12:02.361Z,75.54
2019-01-29T07:14:32.320Z,75.17
2019-01-29T07:17:21.298Z,74.90
2019-01-29T07:19:54.965Z,75.50
2019-01-29T07:22:24.942Z,75.33
2019-01-29T07:24:54.998Z,75.64
2019-01-29T07:27:24.965Z,75.24
2019-01-29T07:29:55.009Z,74.29
2019-01-29T07:32:24.975Z,73.21
2019-01-29T07:34:54.942Z,73.19
2019-01-29T07:37:24.936Z,73.42
2019-01-29T07:39:54.894Z,73.32
2019-01-29T07:42:24.798Z,72.94
2019-01-29T07:44:54.889Z,73.98
2019-01-29T07:47:24.871Z,74.52
2019-01-29T07:49:54.784Z,74.49
2019-01-29T07:52:24.826Z,74.43
2019-01-29T07:54:54.634Z,74.35
2019-01-29T07:57:24.783Z,74.97
2019-01-29T07:59:55.245Z,74.72
2019-01-29T08:02:25.274Z,74.62
2019-01-29T08:04:55.233Z,74.93
2019-01-29T08:07:25.230Z,74.91
2019-01-29T08:09:55.222Z,75.92
2019-01-29T08:12:25.091Z,74.90
2019-01-29T08:14:55.051Z,74.14
2019-01-29T08:17:25.056Z,73.15
2019-01-29T08:19:54.994Z,74.14
2019-01-29T08:22:25.030Z,73.96
2019-01-29T08:25:01.853Z,72.40
2019-01-29T08:27:26.644Z,70.52
2019-01-29T08:29:56.462Z,69.25
2019-01-29T08:32:26.490Z,69.57
2019-01-29T08:34:56.503Z,69.28
2019-01-29T08:37:26.482Z,69.97
2019-01-29T08:39:56.406Z,71.20
2019-01-29T08:42:26.401Z,69.73
2019-01-29T08:44:56.372Z,70.04
2019-01-29T08:47:26.327Z,69.36
2019-01-29T08:49:56.333Z,71.04
2019-01-29T08:52:26.161Z,71.73
2019-01-29T08:54:56.165Z,71.72
2019-01-29T08:57:26.071Z,71.31
2019-01-29T08:59:56.122Z,70.03
2019-01-29T09:02:26.117Z,69.42
2019-01-29T09:04:56.169Z,68.44
2019-01-29T09:07:26.136Z,66.54
2019-01-29T09:09:56.235Z,66.55
2019-01-29T09:12:26.170Z,68.20
2019-01-29T09:14:56.143Z,70.96
2019-01-29T09:17:26.143Z,74.27
2019-01-29T09:19:56.165Z,75.21
2019-01-29T09:22:26.085Z,76.63
2019-01-29T09:24:55.994Z,74.32
2019-01-29T09:27:25.956Z,73.50
2019-01-29T09:29:55.781Z,70.15
2019-01-29T09:32:25.717Z,70.29
2019-01-29T09:34:55.622Z,70.47
2019-01-29T09:37:25.636Z,67.62
2019-01-29T09:39:55.626Z,66.70
2019-01-29T09:42:25.590Z,69.32
2019-01-29T09:44:55.443Z,70.38
2019-01-29T09:47:25.451Z,69.84
2019-01-29T09:49:55.430Z,70.55
2019-01-29T09:52:25.448Z,69.82
2019-01-29T09:54:55.389Z,68.63
2019-01-29T09:57:25.449Z,69.15
2019-01-29T09:59:55.453Z,69.04
2019-01-29T10:02:25.522Z,68.76
2019-01-29T10:04:55.424Z,69.40
2019-01-29T10:07:25.514Z,70.27
2019-01-29T10:09:55.531Z,68.97
2019-01-29T10:12:25.516Z,69.40
2019-01-29T10:14:55.546Z,68.37
2019-01-29T10:17:25.922Z,67.15
2019-01-29T10:20:02.515Z,67.27
2019-01-29T10:22:27.681Z,65.86
2019-01-29T10:24:57.667Z,65.10
2019-01-29T10:27:27.686Z,65.41
2019-01-29T10:29:57.679Z,66.12
2019-01-29T10:32:27.633Z,66.25
2019-01-29T10:34:57.523Z,65.08
2019-01-29T10:37:27.556Z,65.42
2019-01-29T10:39:57.540Z,64.58
2019-01-29T10:42:27.590Z,62.96
2019-01-29T10:44:57.396Z,62.44
2019-01-29T10:47:27.577Z,63.97
2019-01-29T10:49:57.466Z,64.29
2019-01-29T10:52:27.484Z,63.93
2019-01-29T10:54:58.108Z,63.95
2019-01-29T10:57:28.213Z,61.96
2019-01-29T10:59:58.127Z,63.05
2019-01-29T11:02:28.026Z,60.35
2019-01-29T11:04:58.084Z,61.11
2019-01-29T11:07:27.995Z,60.13
2019-01-29T11:09:58.012Z,60.08
2019-01-29T11:12:27.909Z,59.20
2019-01-29T11:14:57.847Z,59.99
2019-01-29T11:17:27.829Z,57.92
2019-01-29T11:19:57.821Z,56.78
2019-01-29T11:22:27.874Z,55.91
2019-01-29T11:24:57.944Z,56.66
2019-01-29T11:27:27.994Z,56.28
2019-01-29T11:29:57.961Z,56.47
2019-01-29T11:32:28.059Z,57.87
2019-01-29T11:34:57.949Z,58.96
2019-01-29T11:37:27.971Z,58.46
2019-01-29T11:39:57.885Z,57.85
2019-01-29T11:42:27.907Z,56.89
2019-01-29T11:44:57.812Z,59.70
2019-01-29T11:47:27.822Z,59.91
2019-01-29T11:49:57.798Z,58.71
2019-01-29T11:52:28.511Z,57.09
2019-01-29T11:54:58.416Z,54.09
2019-01-29T11:57:28.359Z,52.58
2019-01-29T11:59:58.360Z,51.48
2019-01-29T12:02:28.738Z,52.74
2019-01-29T12:04:58.812Z,52.92
2019-01-29T12:07:28.769Z,52.62
2019-01-29T12:09:58.793Z,53.99
2019-01-29T12:12:28.840Z,52.75
2019-01-29T12:14:58.796Z,53.17
2019-01-29T12:17:28.768Z,52.14
2019-01-29T12:19:58.717Z,52.39
2019-01-29T12:22:28.755Z,51.08
2019-01-29T12:24:58.855Z,50.67
2019-01-29T12:27:28.824Z,51.21
2019-01-29T12:29:58.770Z,51.88
2019-01-29T12:32:28.783Z,50.91
2019-01-29T12:34:58.622Z,52.80
2019-01-29T12:37:28.572Z,52.63
2019-01-29T12:39:58.490Z,51.65
2019-01-29T12:42:28.495Z,50.89
2019-01-29T12:44:58.529Z,50.25
2019-01-29T12:47:28.527Z,50.55
2019-01-29T12:49:58.526Z,49.66
2019-01-29T12:52:40.336Z,49.92
2019-01-29T12:55:10.646Z,50.52
2019-01-29T12:57:40.631Z,50.73
2019-01-29T13:00:13.062Z,50.22
2019-01-29T13:02:43.025Z,49.75
2019-01-29T13:05:13.558Z,49.73
2019-01-29T13:07:43.980Z,49.71
2019-01-29T13:10:19.454Z,49.12
2019-01-29T13:12:49.714Z,49.42
2019-01-29T13:15:22.464Z,49.52
2019-01-29T13:17:52.476Z,46.61
2019-01-29T13:20:22.459Z,45.90
2019-01-29T13:22:52.478Z,46.39
2019-01-29T13:25:22.728Z,47.14
2019-01-29T13:27:52.653Z,45.84
2019-01-29T13:30:25.886Z,45.74
2019-01-29T13:32:55.833Z,45.38
2019-01-29T13:35:28.963Z,46.33
2019-01-29T13:37:59.015Z,46.56
2019-01-29T13:40:29.011Z,47.05
2019-01-29T13:42:59.054Z,47.96
2019-01-29T13:45:29.136Z,46.46
2019-01-29T13:47:59.165Z,48.08
2019-01-29T13:50:33.072Z,47.91
2019-01-29T13:53:03.291Z,46.75
2019-01-29T13:55:33.275Z,45.28
2019-01-29T13:58:03.285Z,45.89
2019-01-29T14:00:34.223Z,44.52
2019-01-29T14:03:04.642Z,41.85
2019-01-29T14:05:34.672Z,41.14
2019-01-29T14:08:04.885Z,40.93
2019-01-29T14:10:34.897Z,42.52
2019-01-29T14:13:04.888Z,42.60
2019-01-29T14:15:43.095Z,41.85
2019-01-29T14:18:13.969Z,42.08
2019-01-29T14:20:43.998Z,44.08
2019-01-29T14:23:14.001Z,44.86
2019-01-29T14:25:44.096Z,45.59
2019-01-29T14:28:14.053Z,45.92
2019-01-29T14:30:44.082Z,45.23
2019-01-29T14:33:14.153Z,43.54
2019-01-29T14:35:44.183Z,43.43
2019-01-29T14:38:52.265Z,42.59
2019-01-29T14:41:22.971Z,41.91
2019-01-29T14:43:58.168Z,40.97
2019-01-29T14:46:28.222Z,40.76
2019-01-29T14:48:58.056Z,39.98
2019-01-29T14:51:28.089Z,39.34
2019-01-29T14:53:58.099Z,39.79
2019-01-29T14:56:28.122Z,40.20
2019-01-29T14:58:57.981Z,39.72
2019-01-29T15:01:28.246Z,40.62
2019-01-29T15:03:58.177Z,41.92
2019-01-29T15:06:32.567Z,39.81
2019-01-29T15:08:59.925Z,41.55
2019-01-29T15:11:29.762Z,41.58
2019-01-29T15:13:59.721Z,42.76
2019-01-29T15:16:57.769Z,43.59
2019-01-29T15:19:29.389Z,41.14
2019-01-29T15:21:59.312Z,40.28
2019-01-29T15:24:29.207Z,41.16
2019-01-29T15:27:05.412Z,44.05
2019-01-29T15:29:30.881Z,42.95
2019-01-29T15:32:00.734Z,46.55
2019-01-29T15:34:30.667Z,45.42
2019-01-29T15:37:00.693Z,44.04
2019-01-29T15:39:31.664Z,45.00
2019-01-29T15:42:01.715Z,47.12
2019-01-29T15:44:31.640Z,46.49
2019-01-29T15:47:01.588Z,48.72
2019-01-29T15:49:31.503Z,49.55
2019-01-29T15:52:01.547Z,50.43
2019-01-29T15:54:34.350Z,50.13
2019-01-29T15:57:03.124Z,53.96
2019-01-29T15:59:42.604Z,55.15
2019-01-29T16:02:06.303Z,55.06
2019-01-29T16:04:36.268Z,55.63
2019-01-29T16:07:06.346Z,55.92
2019-01-29T16:09:36.170Z,58.38
2019-01-29T16:12:06.360Z,59.04
2019-01-29T16:14:36.407Z,60.67
2019-01-29T16:17:06.451Z,62.42
2019-01-29T16:19:36.458Z,63.22
2019-01-29T16:22:06.434Z,63.78
2019-01-29T16:24:36.328Z,64.60
2019-01-29T16:27:07.162Z,64.64
2019-01-29T16:29:37.225Z,65.23
2019-01-29T16:32:07.210Z,67.23
2019-01-29T16:34:37.336Z,67.51
2019-01-29T16:37:07.297Z,66.47
2019-01-29T16:39:37.196Z,66.68
2019-01-29T16:42:07.124Z,65.75
2019-01-29T16:44:38.020Z,66.20
2019-01-29T16:47:08.060Z,66.80
2019-01-29T16:49:38.061Z,66.26
2019-01-29T16:52:08.103Z,66.09
2019-01-29T16:54:38.023Z,65.95
2019-01-29T16:57:08.045Z,65.92
2019-01-29T16:59:37.859Z,66.79
2019-01-29T17:02:08.047Z,66.84
2019-01-29T17:04:37.884Z,67.13
2019-01-29T17:07:07.942Z,67.72
2019-01-29T17:09:37.744Z,68.05
2019-01-29T17:12:07.730Z,68.36
2019-01-29T17:14:37.707Z,68.33
2019-01-29T17:17:07.702Z,68.41
2019-01-29T17:19:37.561Z,68.05
2019-01-29T17:22:07.632Z,68.78
2019-01-29T17:24:38.642Z,67.45
2019-01-29T17:27:08.628Z,67.77
2019-01-29T17:29:38.558Z,68.00
2019-01-29T17:32:08.573Z,68.27
2019-01-29T17:34:38.471Z,67.70
2019-01-29T17:37:08.558Z,68.07
2019-01-29T17:39:38.588Z,68.02
2019-01-29T17:42:08.568Z,68.52
2019-01-29T17:44:38.619Z,68.24
2019-01-29T17:47:08.647Z,68.41
2019-01-29T17:49:38.662Z,69.61
2019-01-29T17:52:08.610Z,70.30
2019-01-29T17:54:38.709Z,71.19
2019-01-29T17:57:08.672Z,71.41
2019-01-29T17:59:38.584Z,71.54
2019-01-29T18:02:09.102Z,71.84
2019-01-29T18:04:39.104Z,72.29
2019-01-29T18:07:09.203Z,72.23
2019-01-29T18:09:39.379Z,72.36
2019-01-29T18:12:09.525Z,72.43
2019-01-29T18:14:39.506Z,72.42
2019-01-29T18:17:09.589Z,72.43
2019-01-29T18:19:39.457Z,72.16
2019-01-29T18:22:10.885Z,72.00
2019-01-29T18:24:40.924Z,72.10
2019-01-29T18:27:10.888Z,72.23
2019-01-29T18:29:41.061Z,72.14
2019-01-29T18:32:10.875Z,72.13
2019-01-29T18:34:40.833Z,72.20
2019-01-29T18:37:10.743Z,72.65
2019-01-29T18:39:40.788Z,72.50
2019-01-29T18:42:11.851Z,72.47
2019-01-29T18:44:41.719Z,72.79
2019-01-29T18:47:11.656Z,72.51
2019-01-29T18:49:41.689Z,72.69
2019-01-29T18:52:11.671Z,72.53
2019-01-29T18:54:41.599Z,72.38
2019-01-29T18:57:11.555Z,72.68
2019-01-29T18:59:41.463Z,72.83
2019-01-29T19:02:11.688Z,72.83
2019-01-29T19:04:41.528Z,72.68
2019-01-29T19:07:11.454Z,72.60
2019-01-29T19:09:41.449Z,72.73
2019-01-29T19:12:11.495Z,72.73
2019-01-29T19:14:41.328Z,72.67
2019-01-29T19:17:11.475Z,72.98
2019-01-29T19:19:41.484Z,73.27
2019-01-29T19:22:11.434Z,73.18
2019-01-29T19:24:41.299Z,73.29
2019-01-29T19:27:11.329Z,73.35
2019-01-29T19:29:41.292Z,73.22
2019-01-29T19:32:11.190Z,73.48
2019-01-29T19:34:41.302Z,73.59
2019-01-29T19:37:11.217Z,73.77
2019-01-29T19:39:41.069Z,73.65
2019-01-29T19:42:11.148Z,73.90
2019-01-29T19:44:41.106Z,74.11
2019-01-29T19:47:11.803Z,74.41
2019-01-29T19:49:42.167Z,74.43
2019-01-29T19:52:12.143Z,74.67
2019-01-29T19:54:42.142Z,75.04
2019-01-29T19:57:12.182Z,75.34
2019-01-29T19:59:42.095Z,75.53
2019-01-29T20:02:12.342Z,75.92
2019-01-29T20:04:42.575Z,76.01
2019-01-29T20:07:13.574Z,76.51
2019-01-29T20:09:43.431Z,76.84
2019-01-29T20:12:13.506Z,76.89
2019-01-29T20:14:43.541Z,77.06
2019-01-29T20:17:13.484Z,77.22
2019-01-29T20:19:43.374Z,77.15
2019-01-29T20:22:13.630Z,77.40
2019-01-29T20:24:43.684Z,77.86
2019-01-29T20:27:13.781Z,77.73
2019-01-29T20:29:43.663Z,77.85
2019-01-29T20:32:13.612Z,77.99
2019-01-29T20:34:43.554Z,77.87
2019-01-29T20:37:13.492Z,77.86
2019-01-29T20:39:43.542Z,78.00
2019-01-29T20:42:13.547Z,77.98
2019-01-29T20:44:43.563Z,78.18
2019-01-29T20:47:13.524Z,78.16
2019-01-29T20:49:43.639Z,78.11
2019-01-29T20:52:13.668Z,78.19
2019-01-29T20:54:43.541Z,78.16
2019-01-29T20:57:13.570Z,78.20
2019-01-29T20:59:43.480Z,78.26
2019-01-29T21:02:13.549Z,78.24
2019-01-29T21:04:43.459Z,78.49
2019-01-29T21:07:13.553Z,78.18
2019-01-29T21:09:43.406Z,78.36
2019-01-29T21:12:32.550Z,78.28
2019-01-29T21:15:03.445Z,78.33
2019-01-29T21:17:33.451Z,78.20
2019-01-29T21:20:03.583Z,78.34
2019-01-29T21:22:33.557Z,78.34
2019-01-29T21:25:03.630Z,78.32
2019-01-29T21:27:33.895Z,78.42
2019-01-29T21:30:04.938Z,79.67
2019-01-29T21:32:34.980Z,78.99
2019-01-29T21:35:05.098Z,77.42
2019-01-29T21:37:35.116Z,76.34
2019-01-29T21:40:06.751Z,76.98
2019-01-29T21:42:36.709Z,77.12
2019-01-29T21:45:08.038Z,77.73
2019-01-29T21:47:37.970Z,77.94
2019-01-29T21:50:12.483Z,78.10
2019-01-29T21:52:42.561Z,78.32
2019-01-29T21:55:12.790Z,78.63
2019-01-29T21:57:42.955Z,79.02
2019-01-29T22:00:42.015Z,78.74
2019-01-29T22:03:12.493Z,78.91
2019-01-29T22:05:42.486Z,79.09
2019-01-29T22:08:12.951Z,78.92
2019-01-29T22:10:43.159Z,78.85
2019-01-29T22:13:13.839Z,78.79
2019-01-29T22:15:44.010Z,79.03
2019-01-29T22:18:14.968Z,79.05
2019-01-29T22:20:44.987Z,78.91
2019-01-29T22:23:14.973Z,78.96
2019-01-29T22:25:44.996Z,78.93
2019-01-29T22:28:15.058Z,78.96
2019-01-29T22:30:45.090Z,78.76
2019-01-29T22:33:15.361Z,78.88
2019-01-29T22:35:45.381Z,78.98
2019-01-29T22:38:15.290Z,79.51
2019-01-29T22:40:45.248Z,79.70
2019-01-29T22:43:15.201Z,79.62
2019-01-29T22:45:45.148Z,79.45
2019-01-29T22:48:14.994Z,79.20
2019-01-29T22:50:44.868Z,79.25
2019-01-29T22:53:14.915Z,79.40
2019-01-29T22:55:44.922Z,79.33
2019-01-29T22:58:14.961Z,79.53
2019-01-29T23:00:53.774Z,79.37
2019-01-29T23:03:29.628Z,79.76
2019-01-29T23:06:52.866Z,80.05
2019-01-29T23:09:22.888Z,80.05
2019-01-29T23:11:54.391Z,80.16
2019-01-29T23:14:24.242Z,80.26
2019-01-29T23:16:54.109Z,80.23
2019-01-29T23:19:24.189Z,80.45
2019-01-29T23:21:54.188Z,80.66
2019-01-29T23:24:24.343Z,80.98
2019-01-29T23:26:54.263Z,80.88
2019-01-29T23:29:24.139Z,80.68
2019-01-29T23:31:54.113Z,81.10
2019-01-29T23:34:24.058Z,80.87
2019-01-29T23:36:53.975Z,85.61
2019-01-29T23:39:23.962Z,69.54
2019-01-29T23:41:53.947Z,63.84
2019-01-29T23:44:23.936Z,60.96
2019-01-29T23:46:53.984Z,66.25
2019-01-29T23:49:23.941Z,70.16
2019-01-29T23:51:53.929Z,72.96
2019-01-29T23:54:23.988Z,74.70
2019-01-29T23:56:54.087Z,75.72
2019-01-29T23:59:24.006Z,76.50
